createdAt,value
2022-11-07T00:01:42.439Z,12.20
2022-11-07T00:04:09.975Z,13.73
2022-11-07T00:06:38.363Z,13.60
2022-11-07T00:09:07.436Z,14.90
2022-11-07T00:11:34.986Z,16.97
2022-11-07T00:14:02.533Z,15.90
2022-11-07T00:16:30.579Z,17.13
2022-11-07T00:18:58.088Z,45.70
2022-11-07T00:21:25.647Z,46.10
2022-11-07T00:23:53.229Z,40.93
2022-11-07T00:26:22.475Z,32.33
2022-11-07T00:28:50.209Z,30.60
2022-11-07T00:31:18.223Z,33.80
2022-11-07T00:33:46.615Z,25.20
2022-11-07T00:36:18.946Z,31.93
2022-11-07T00:38:46.567Z,30.57
2022-11-07T00:41:14.824Z,36.93
2022-11-07T00:43:43.767Z,29.53
2022-11-07T00:46:13.337Z,33.67
2022-11-07T00:48:41.070Z,43.90
2022-11-07T00:51:10.259Z,33.17
2022-11-07T00:53:38.472Z,22.60
2022-11-07T00:56:08.480Z,11.37
2022-11-07T00:58:36.605Z,10.70
2022-11-07T01:01:09.933Z,10.57
2022-11-07T01:03:55.578Z,11.60
2022-11-07T01:06:23.450Z,14.17
2022-11-07T01:08:51.701Z,14.13
2022-11-07T01:11:19.238Z,13.33
2022-11-07T01:13:46.809Z,21.10
2022-11-07T01:16:15.718Z,21.13
2022-11-07T01:18:43.407Z,20.63
2022-11-07T01:21:16.313Z,20.70
2022-11-07T01:23:44.537Z,9.67
2022-11-07T01:26:14.066Z,14.70
2022-11-07T01:28:41.876Z,8.90
2022-11-07T01:31:11.357Z,7.80
2022-11-07T01:33:40.473Z,7.53
2022-11-07T01:36:10.351Z,8.13
2022-11-07T01:38:39.314Z,7.90
2022-11-07T01:41:24.466Z,8.37
2022-11-07T01:44:03.068Z,8.13
2022-11-07T01:46:33.775Z,8.07
2022-11-07T01:49:08.506Z,9.25
2022-11-07T01:51:40.062Z,8.27
2022-11-07T01:54:08.622Z,11.47
2022-11-07T01:56:40.614Z,10.33
2022-11-07T01:59:10.269Z,11.67
2022-11-07T02:01:38.294Z,8.13
2022-11-07T02:04:07.793Z,7.07
2022-11-07T02:06:42.923Z,7.23
2022-11-07T02:09:10.485Z,10.67
2022-11-07T02:11:38.282Z,11.93
2022-11-07T02:14:06.263Z,24.13
2022-11-07T02:16:35.988Z,24.50
2022-11-07T02:19:05.956Z,20.43
2022-11-07T02:21:44.977Z,19.27
2022-11-07T02:24:23.866Z,17.17
2022-11-07T02:26:52.935Z,22.13
2022-11-07T02:29:21.638Z,22.87
2022-11-07T02:31:49.163Z,23.60
2022-11-07T02:34:16.680Z,24.70
2022-11-07T02:36:44.283Z,21.53
2022-11-07T02:39:11.804Z,25.37
2022-11-07T02:41:40.724Z,13.87
2022-11-07T02:44:12.111Z,10.63
2022-11-07T02:46:40.755Z,12.97
2022-11-07T02:49:08.287Z,10.53
2022-11-07T02:51:35.806Z,18.03
2022-11-07T02:54:03.356Z,16.57
2022-11-07T02:56:30.896Z,13.33
2022-11-07T02:58:59.757Z,24.70
2022-11-07T03:01:27.391Z,21.97
2022-11-07T03:03:55.076Z,23.77
2022-11-07T03:06:24.686Z,24.47
2022-11-07T03:08:52.788Z,23.87
2022-11-07T03:11:20.710Z,20.47
2022-11-07T03:13:48.679Z,18.67
2022-11-07T03:16:19.287Z,10.87
2022-11-07T03:18:46.840Z,17.43
2022-11-07T03:21:14.664Z,13.47
2022-11-07T03:23:42.232Z,13.50
2022-11-07T03:26:10.120Z,20.30
2022-11-07T03:28:37.675Z,9.80
2022-11-07T03:31:05.980Z,15.20
2022-11-07T03:33:34.920Z,19.47
2022-11-07T03:36:02.499Z,22.63
2022-11-07T03:38:30.023Z,21.17
2022-11-07T03:40:57.551Z,23.97
2022-11-07T03:43:25.083Z,17.33
2022-11-07T03:45:52.618Z,19.13
2022-11-07T03:48:20.142Z,16.53
2022-11-07T03:50:49.012Z,9.27
2022-11-07T03:53:22.275Z,9.93
2022-11-07T03:55:55.677Z,10.87
2022-11-07T03:58:23.466Z,11.40
2022-11-07T04:00:51.011Z,11.87
2022-11-07T04:03:18.601Z,11.63
2022-11-07T04:05:46.110Z,11.60
2022-11-07T04:08:14.982Z,12.73
2022-11-07T04:10:42.506Z,10.87
2022-11-07T04:13:27.760Z,13.67
2022-11-07T04:16:24.743Z,14.00
2022-11-07T04:18:52.282Z,10.30
2022-11-07T04:21:19.828Z,9.70
2022-11-07T04:23:48.726Z,17.27
2022-11-07T04:26:34.315Z,16.80
2022-11-07T04:29:01.946Z,11.50
2022-11-07T04:31:29.508Z,25.87
2022-11-07T04:33:57.289Z,23.80
2022-11-07T04:36:24.854Z,27.60
2022-11-07T04:38:53.703Z,20.33
2022-11-07T04:41:23.287Z,24.53
2022-11-07T04:43:51.564Z,22.27
2022-11-07T04:46:19.140Z,17.97
2022-11-07T04:48:46.648Z,22.93
2022-11-07T04:51:17.666Z,18.80
2022-11-07T04:53:45.247Z,18.30
2022-11-07T04:56:14.117Z,12.23
2022-11-07T04:58:41.619Z,14.17
2022-11-07T05:01:09.267Z,14.70
2022-11-07T05:03:41.509Z,12.40
2022-11-07T05:06:13.242Z,24.07
2022-11-07T05:08:40.765Z,20.13
2022-11-07T05:11:08.318Z,19.77
2022-11-07T05:13:37.154Z,22.23
2022-11-07T05:16:05.259Z,35.20
2022-11-07T05:18:32.761Z,34.57
2022-11-07T05:21:00.284Z,32.83
2022-11-07T05:23:28.457Z,37.20
2022-11-07T05:25:56.740Z,20.77
2022-11-07T05:28:35.284Z,33.73
2022-11-07T05:31:09.377Z,31.40
2022-11-07T05:33:37.193Z,29.60
2022-11-07T05:36:12.601Z,35.67
2022-11-07T05:38:41.606Z,39.07
2022-11-07T05:41:09.393Z,33.57
2022-11-07T05:43:38.523Z,31.03
2022-11-07T05:46:08.418Z,30.03
2022-11-07T05:48:36.522Z,39.20
2022-11-07T05:51:04.659Z,37.50
2022-11-07T05:53:32.645Z,36.47
2022-11-07T05:56:00.489Z,31.33
2022-11-07T05:58:28.097Z,24.03
2022-11-07T06:00:55.587Z,9.47
2022-11-07T06:03:24.586Z,10.33
2022-11-07T06:05:52.133Z,9.07
2022-11-07T06:08:19.683Z,10.20
2022-11-07T06:10:47.180Z,9.17
2022-11-07T06:13:17.471Z,8.60
2022-11-07T06:15:46.392Z,9.50
2022-11-07T06:18:17.647Z,11.53
2022-11-07T06:20:46.585Z,13.47
2022-11-07T06:23:14.622Z,18.30
2022-11-07T06:25:42.554Z,9.33
2022-11-07T06:28:13.199Z,11.63
2022-11-07T06:30:41.730Z,9.30
2022-11-07T06:33:13.091Z,10.27
2022-11-07T06:35:40.832Z,9.87
2022-11-07T06:38:11.717Z,9.53
2022-11-07T06:40:40.623Z,11.87
2022-11-07T06:43:09.151Z,11.13
2022-11-07T06:45:37.324Z,10.10
2022-11-07T06:48:05.107Z,9.40
2022-11-07T06:50:32.761Z,9.60
2022-11-07T06:53:02.906Z,9.10
2022-11-07T06:55:31.902Z,8.70
2022-11-07T06:58:00.652Z,9.50
2022-11-07T07:00:28.706Z,9.10
2022-11-07T07:02:59.007Z,9.30
2022-11-07T07:05:27.017Z,8.83
2022-11-07T07:07:55.869Z,8.83
2022-11-07T07:10:25.026Z,9.70
2022-11-07T07:12:54.298Z,9.10
2022-11-07T07:15:21.976Z,9.30
2022-11-07T07:17:49.582Z,9.30
2022-11-07T07:20:17.287Z,9.27
2022-11-07T07:22:45.128Z,8.18
2022-11-07T07:25:12.670Z,7.90
2022-11-07T07:27:40.186Z,8.80
2022-11-07T07:30:10.981Z,8.03
2022-11-07T07:32:38.868Z,8.57
2022-11-07T07:35:07.804Z,7.87
2022-11-07T07:37:35.340Z,7.90
2022-11-07T07:40:02.992Z,11.25
2022-11-07T07:42:30.519Z,24.40
2022-11-07T07:44:58.124Z,22.52
2022-11-07T07:47:27.058Z,14.05
2022-11-07T07:49:54.580Z,11.45
2022-11-07T07:52:22.092Z,7.22
2022-11-07T07:54:49.603Z,6.43
2022-11-07T07:57:17.527Z,5.22
2022-11-07T07:59:45.056Z,5.82
2022-11-07T08:02:13.286Z,9.25
2022-11-07T08:04:42.893Z,7.05
2022-11-07T08:07:10.972Z,5.80
2022-11-07T08:09:38.513Z,7.75
2022-11-07T08:12:08.682Z,8.02
2022-11-07T08:14:36.298Z,9.02
2022-11-07T08:17:04.203Z,13.27
2022-11-07T08:19:31.746Z,18.05
2022-11-07T08:22:00.707Z,22.48
2022-11-07T08:24:28.327Z,28.25
2022-11-07T08:26:55.845Z,20.83
2022-11-07T08:29:23.354Z,14.02
2022-11-07T08:31:51.219Z,13.07
2022-11-07T08:34:18.908Z,8.23
2022-11-07T08:36:46.411Z,5.32
2022-11-07T08:39:15.289Z,5.72
2022-11-07T08:41:42.786Z,4.95
2022-11-07T08:44:10.452Z,4.70
2022-11-07T08:46:38.025Z,4.93
2022-11-07T08:49:05.602Z,8.00
2022-11-07T08:51:33.126Z,11.38
2022-11-07T08:54:00.824Z,8.38
2022-11-07T08:56:30.412Z,10.07
2022-11-07T08:58:57.933Z,11.57
2022-11-07T09:01:25.555Z,9.88
2022-11-07T09:03:57.901Z,13.50
2022-11-07T09:06:25.907Z,7.18
2022-11-07T09:08:53.578Z,11.75
2022-11-07T09:11:21.938Z,11.02
2022-11-07T09:13:50.891Z,10.95
2022-11-07T09:16:18.438Z,11.55
2022-11-07T09:18:47.088Z,11.10
2022-11-07T09:21:20.691Z,10.10
2022-11-07T09:23:49.463Z,14.75
2022-11-07T09:26:16.994Z,19.55
2022-11-07T09:28:48.419Z,9.00
2022-11-07T09:31:20.400Z,8.95
2022-11-07T09:33:47.919Z,4.70
2022-11-07T09:36:15.449Z,5.68
2022-11-07T09:38:43.895Z,4.07
2022-11-07T09:41:18.530Z,6.70
2022-11-07T09:43:59.108Z,8.52
2022-11-07T09:46:38.558Z,9.93
2022-11-07T09:49:17.786Z,11.00
2022-11-07T09:51:48.953Z,5.90
2022-11-07T09:54:19.907Z,8.13
2022-11-07T09:56:47.911Z,6.20
2022-11-07T09:59:22.288Z,11.63
2022-11-07T10:01:51.432Z,10.55
2022-11-07T10:04:26.226Z,8.63
2022-11-07T10:06:59.759Z,10.27
2022-11-07T10:09:36.993Z,10.68
2022-11-07T10:12:19.129Z,9.32
2022-11-07T10:14:55.152Z,10.55
2022-11-07T10:17:34.291Z,11.07
2022-11-07T10:20:14.093Z,9.10
2022-11-07T10:22:53.827Z,10.75
2022-11-07T10:25:25.584Z,11.48
2022-11-07T10:28:02.475Z,7.25
2022-11-07T10:30:29.981Z,5.57
2022-11-07T10:33:07.409Z,7.75
2022-11-07T10:35:39.408Z,7.90
2022-11-07T10:38:18.291Z,7.05
2022-11-07T10:40:47.698Z,9.75
2022-11-07T10:43:29.510Z,10.80
2022-11-07T10:45:58.306Z,9.57
2022-11-07T10:48:29.455Z,9.10
2022-11-07T10:50:58.028Z,10.77
2022-11-07T10:53:27.274Z,11.13
2022-11-07T10:55:56.366Z,11.20
2022-11-07T10:58:26.588Z,7.10
2022-11-07T11:01:00.002Z,9.75
2022-11-07T11:03:43.103Z,10.43
2022-11-07T11:06:21.332Z,10.35
2022-11-07T11:08:51.028Z,10.70
2022-11-07T11:11:28.230Z,9.82
2022-11-07T11:14:03.587Z,11.00
2022-11-07T11:16:32.315Z,10.70
2022-11-07T11:19:03.128Z,13.27
2022-11-07T11:21:40.927Z,12.18
2022-11-07T11:24:26.822Z,24.38
2022-11-07T11:26:55.452Z,19.30
2022-11-07T11:29:32.338Z,10.38
2022-11-07T11:32:04.032Z,14.65
2022-11-07T11:34:43.303Z,11.90
2022-11-07T11:37:16.592Z,8.38
2022-11-07T11:39:48.483Z,8.82
2022-11-07T11:42:27.640Z,7.32
2022-11-07T11:44:58.242Z,9.63
2022-11-07T11:47:34.143Z,18.13
2022-11-07T11:50:11.046Z,23.63
2022-11-07T11:52:38.692Z,11.82
2022-11-07T11:55:13.867Z,7.13
2022-11-07T11:57:51.438Z,7.20
2022-11-07T12:00:20.455Z,11.80
2022-11-07T12:02:59.044Z,12.70
2022-11-07T12:05:53.851Z,8.55
2022-11-07T12:08:31.656Z,7.82
2022-11-07T12:11:04.309Z,19.65
2022-11-07T12:13:43.401Z,28.83
2022-11-07T12:16:23.551Z,24.85
2022-11-07T12:18:57.448Z,28.52
2022-11-07T12:21:32.606Z,31.95
2022-11-07T12:24:22.983Z,23.30
2022-11-07T12:26:59.424Z,13.30
2022-11-07T12:29:36.447Z,12.05
2022-11-07T12:32:13.981Z,17.30
2022-11-07T12:35:00.677Z,13.35
2022-11-07T12:37:57.960Z,11.63
2022-11-07T12:40:31.059Z,18.85
2022-11-07T12:43:12.988Z,17.80
2022-11-07T12:45:49.244Z,28.60
2022-11-07T12:48:49.349Z,17.23
2022-11-07T12:51:27.631Z,16.67
2022-11-07T12:54:15.355Z,9.90
2022-11-07T12:56:47.894Z,15.40
2022-11-07T12:59:21.919Z,14.23
2022-11-07T13:01:56.640Z,18.20
2022-11-07T13:04:33.600Z,30.60
2022-11-07T13:07:07.345Z,26.45
2022-11-07T13:09:42.196Z,26.08
2022-11-07T13:12:17.032Z,25.42
2022-11-07T13:14:45.407Z,27.10
2022-11-07T13:17:19.819Z,24.63
2022-11-07T13:19:59.567Z,18.80
2022-11-07T13:22:34.174Z,18.33
2022-11-07T13:25:24.721Z,12.93
2022-11-07T13:28:24.482Z,11.43
2022-11-07T13:31:05.128Z,12.93
2022-11-07T13:33:37.193Z,16.58
2022-11-07T13:36:15.525Z,11.02
2022-11-07T13:38:49.778Z,7.85
2022-11-07T13:41:20.363Z,22.70
2022-11-07T13:43:55.619Z,28.23
2022-11-07T13:46:28.651Z,31.98
2022-11-07T13:48:59.087Z,35.17
2022-11-07T13:51:32.605Z,21.55
2022-11-07T13:54:12.346Z,5.22
2022-11-07T13:56:45.513Z,10.32
2022-11-07T13:59:21.519Z,7.55
2022-11-07T14:01:55.831Z,10.10
2022-11-07T14:04:23.742Z,10.20
2022-11-07T14:06:51.799Z,13.50
2022-11-07T14:09:21.307Z,11.90
2022-11-07T14:11:53.692Z,11.77
2022-11-07T14:14:23.993Z,7.47
2022-11-07T14:16:55.004Z,13.40
2022-11-07T14:19:28.253Z,12.45
2022-11-07T14:21:56.679Z,9.93
2022-11-07T14:24:27.097Z,14.15
2022-11-07T14:27:07.304Z,11.43
2022-11-07T14:29:35.008Z,14.50
2022-11-07T14:32:04.766Z,13.48
2022-11-07T14:34:34.939Z,11.18
2022-11-07T14:37:06.543Z,12.80
2022-11-07T14:39:34.573Z,5.43
2022-11-07T14:42:03.862Z,5.70
2022-11-07T14:44:55.200Z,7.32
2022-11-07T14:47:26.193Z,4.43
2022-11-07T14:49:55.055Z,5.72
2022-11-07T14:52:26.503Z,7.25
2022-11-07T14:55:01.008Z,5.43
2022-11-07T14:57:28.748Z,6.07
2022-11-07T14:59:57.820Z,5.30
2022-11-07T15:02:30.517Z,4.00
2022-11-07T15:05:06.848Z,5.78
2022-11-07T15:07:48.105Z,4.50
2022-11-07T15:10:24.970Z,6.25
2022-11-07T15:12:55.012Z,4.57
2022-11-07T15:15:26.570Z,3.63
2022-11-07T15:17:57.048Z,6.38
2022-11-07T15:20:33.898Z,4.00
2022-11-07T15:23:03.092Z,3.53
2022-11-07T15:25:36.191Z,4.50
2022-11-07T15:28:19.945Z,4.43
2022-11-07T15:30:50.327Z,3.60
2022-11-07T15:33:19.217Z,4.75
2022-11-07T15:35:49.160Z,3.92
2022-11-07T15:38:20.131Z,3.22
2022-11-07T15:40:48.430Z,2.70
2022-11-07T15:43:16.225Z,2.70
2022-11-07T15:45:44.211Z,3.75
2022-11-07T15:48:17.827Z,3.08
2022-11-07T15:50:48.572Z,3.13
2022-11-07T15:53:23.749Z,6.10
2022-11-07T15:55:53.775Z,22.30
2022-11-07T15:58:23.825Z,17.13
2022-11-07T16:00:51.365Z,21.60
2022-11-07T16:03:21.757Z,12.30
2022-11-07T16:05:52.134Z,13.73
2022-11-07T16:08:22.328Z,10.00
2022-11-07T16:10:51.822Z,8.15
2022-11-07T16:13:19.406Z,6.13
2022-11-07T16:15:50.859Z,6.80
2022-11-07T16:18:21.939Z,8.65
2022-11-07T16:20:51.110Z,8.10
2022-11-07T16:23:19.093Z,9.35
2022-11-07T16:25:50.664Z,6.97
2022-11-07T16:28:27.275Z,7.35
2022-11-07T16:30:55.923Z,7.15
2022-11-07T16:33:26.053Z,6.35
2022-11-07T16:35:56.118Z,9.25
2022-11-07T16:38:25.686Z,9.23
2022-11-07T16:40:54.033Z,10.23
2022-11-07T16:43:21.903Z,8.63
2022-11-07T16:45:52.238Z,14.18
2022-11-07T16:48:22.807Z,12.93
2022-11-07T16:50:52.508Z,13.38
2022-11-07T16:53:20.963Z,12.18
2022-11-07T16:55:53.715Z,6.50
2022-11-07T16:58:27.356Z,5.85
2022-11-07T17:00:56.368Z,6.40
2022-11-07T17:03:24.243Z,6.80
2022-11-07T17:05:55.504Z,11.93
2022-11-07T17:08:26.944Z,12.35
2022-11-07T17:10:54.809Z,8.48
2022-11-07T17:13:22.983Z,8.77
2022-11-07T17:15:50.919Z,6.60
2022-11-07T17:18:20.605Z,4.63
2022-11-07T17:20:51.410Z,4.43
2022-11-07T17:23:25.370Z,6.50
2022-11-07T17:25:57.018Z,6.85
2022-11-07T17:28:24.495Z,6.13
2022-11-07T17:30:52.043Z,7.40
2022-11-07T17:33:19.544Z,8.40
2022-11-07T17:35:47.862Z,20.67
2022-11-07T17:38:17.423Z,14.77
2022-11-07T17:40:46.604Z,10.73
2022-11-07T17:43:14.155Z,10.18
2022-11-07T17:45:41.814Z,6.30
2022-11-07T17:48:09.595Z,8.07
2022-11-07T17:50:37.329Z,9.10
2022-11-07T17:53:04.864Z,8.13
2022-11-07T17:55:32.395Z,9.07
2022-11-07T17:58:01.234Z,8.35
2022-11-07T18:00:28.762Z,7.07
2022-11-07T18:02:56.441Z,6.73
2022-11-07T18:05:31.808Z,6.60
2022-11-07T18:08:00.451Z,6.37
2022-11-07T18:10:27.998Z,6.47
2022-11-07T18:12:57.496Z,7.33
2022-11-07T18:15:26.454Z,15.30
2022-11-07T18:17:53.960Z,11.88
2022-11-07T18:20:21.477Z,12.57
2022-11-07T18:22:48.990Z,17.50
2022-11-07T18:25:16.701Z,20.30
2022-11-07T18:27:44.240Z,13.37
2022-11-07T18:30:12.913Z,11.15
2022-11-07T18:32:42.047Z,11.60
2022-11-07T18:35:10.748Z,12.50
2022-11-07T18:37:38.249Z,25.57
2022-11-07T18:40:06.958Z,21.67
2022-11-07T18:42:34.544Z,9.10
2022-11-07T18:45:02.068Z,7.47
2022-11-07T18:47:30.488Z,8.70
2022-11-07T18:49:59.386Z,12.10
2022-11-07T18:52:26.978Z,11.47
2022-11-07T18:54:54.613Z,11.57
2022-11-07T18:57:22.150Z,10.40
2022-11-07T18:59:49.675Z,10.30
2022-11-07T19:02:17.449Z,7.70
2022-11-07T19:04:45.279Z,9.53
2022-11-07T19:07:14.136Z,11.47
2022-11-07T19:09:41.814Z,10.43
2022-11-07T19:12:09.469Z,9.53
2022-11-07T19:14:37.331Z,9.97
2022-11-07T19:17:04.914Z,8.00
2022-11-07T19:19:35.297Z,7.50
2022-11-07T19:22:02.806Z,7.67
2022-11-07T19:24:31.654Z,7.60
2022-11-07T19:27:00.773Z,10.57
2022-11-07T19:29:28.546Z,22.87
2022-11-07T19:31:56.096Z,23.33
2022-11-07T19:34:25.490Z,21.53
2022-11-07T19:36:53.042Z,17.63
2022-11-07T19:39:20.682Z,19.57
2022-11-07T19:41:49.620Z,32.93
2022-11-07T19:44:17.174Z,26.67
2022-11-07T19:46:44.744Z,28.93
2022-11-07T19:49:12.599Z,36.17
2022-11-07T19:51:40.130Z,14.10
2022-11-07T19:54:08.454Z,12.87
2022-11-07T19:56:36.006Z,11.57
2022-11-07T19:59:04.918Z,10.30
2022-11-07T20:01:35.249Z,11.60
2022-11-07T20:04:03.672Z,11.70
2022-11-07T20:06:36.313Z,10.93
2022-11-07T20:09:06.131Z,10.33
2022-11-07T20:11:34.039Z,13.53
2022-11-07T20:14:03.594Z,11.80
2022-11-07T20:16:34.005Z,12.67
2022-11-07T20:19:02.248Z,10.30
2022-11-07T20:21:31.200Z,17.93
2022-11-07T20:23:59.689Z,17.27
2022-11-07T20:26:29.792Z,12.60
2022-11-07T20:28:57.395Z,8.77
2022-11-07T20:31:27.165Z,11.87
2022-11-07T20:33:58.830Z,13.33
2022-11-07T20:36:27.121Z,10.67
2022-11-07T20:38:54.719Z,8.30
2022-11-07T20:41:23.463Z,9.43
2022-11-07T20:43:54.211Z,9.40
2022-11-07T20:46:21.912Z,10.10
2022-11-07T20:48:49.864Z,12.27
2022-11-07T20:51:20.796Z,13.73
2022-11-07T20:53:50.688Z,45.00
2022-11-07T20:56:19.028Z,38.33
2022-11-07T20:58:47.440Z,44.30
2022-11-07T21:01:17.999Z,26.53
2022-11-07T21:03:46.046Z,36.40
2022-11-07T21:06:13.588Z,29.53
2022-11-07T21:08:45.496Z,34.03
2022-11-07T21:11:14.397Z,43.23
2022-11-07T21:13:45.405Z,38.07
2022-11-07T21:16:15.767Z,44.00
2022-11-07T21:18:43.312Z,29.30
2022-11-07T21:21:12.753Z,39.20
2022-11-07T21:23:42.083Z,34.77
2022-11-07T21:26:11.872Z,36.90
2022-11-07T21:28:40.448Z,13.20
2022-11-07T21:31:10.073Z,9.60
2022-11-07T21:33:38.790Z,12.73
2022-11-07T21:36:10.295Z,9.33
2022-11-07T21:38:38.621Z,9.30
2022-11-07T21:41:08.532Z,8.17
2022-11-07T21:43:36.793Z,9.00
2022-11-07T21:46:09.456Z,9.77
2022-11-07T21:48:37.889Z,12.10
2022-11-07T21:51:06.861Z,9.37
2022-11-07T21:53:37.777Z,12.17
2022-11-07T21:56:07.637Z,10.63
2022-11-07T21:58:35.535Z,8.10
2022-11-07T22:01:04.246Z,13.80
2022-11-07T22:04:03.863Z,35.33
2022-11-07T22:06:20.536Z,25.27
2022-11-07T22:08:49.319Z,19.03
2022-11-07T22:11:18.460Z,17.40
2022-11-07T22:13:46.006Z,16.57
2022-11-07T22:16:15.710Z,10.60
2022-11-07T22:18:43.483Z,11.83
2022-11-07T22:21:13.189Z,9.73
2022-11-07T22:23:42.517Z,10.27
2022-11-07T22:26:12.643Z,12.03
2022-11-07T22:28:45.852Z,10.20
2022-11-07T22:31:15.980Z,10.57
2022-11-07T22:33:43.783Z,10.77
2022-11-07T22:36:12.873Z,11.40
2022-11-07T22:38:41.188Z,11.30
2022-11-07T22:41:11.395Z,10.17
2022-11-07T22:43:39.022Z,10.43
2022-11-07T22:46:10.288Z,9.93
2022-11-07T22:48:38.478Z,9.73
2022-11-07T22:51:07.699Z,8.60
2022-11-07T22:53:36.210Z,9.30
2022-11-07T22:56:08.190Z,8.40
2022-11-07T22:58:35.764Z,10.77
2022-11-07T23:01:03.552Z,12.73
2022-11-07T23:03:33.557Z,11.63
2022-11-07T23:06:03.609Z,10.07
2022-11-07T23:08:31.298Z,10.27
2022-11-07T23:11:32.562Z,9.50
2022-11-07T23:13:47.955Z,11.57
2022-11-07T23:16:22.990Z,13.70
2022-11-07T23:18:52.042Z,12.60
2022-11-07T23:21:20.441Z,10.87
2022-11-07T23:23:48.331Z,10.13
2022-11-07T23:26:18.196Z,14.10
2022-11-07T23:28:46.367Z,16.40
2022-11-07T23:31:14.575Z,10.60
2022-11-07T23:33:43.995Z,10.83
2022-11-07T23:36:14.787Z,11.97
2022-11-07T23:38:43.116Z,13.90
2022-11-07T23:41:13.838Z,13.20
2022-11-07T23:43:42.791Z,10.60
2022-11-07T23:46:30.196Z,10.00
2022-11-07T23:49:15.585Z,9.30
2022-11-07T23:51:46.727Z,9.27
2022-11-07T23:54:32.088Z,11.43
2022-11-07T23:56:59.677Z,10.43
2022-11-07T23:59:44.726Z,11.73
